This is the latest recevied weather packets stored in our database for station/object VK3XEM-13. If no packets are shown the sender has not sent any weather packets the latest 10 day(s).
| Time | Temp. | Humidity | Pressure | Rain* | Wind** | Luminosity | Snow |
|---|---|---|---|---|---|---|---|
| 1788159733 | 69° F | 46% | 768.7 mmHg | 0 in | - | 47 W/m² | - |
| 1788158832 | 70° F | 44% | 768.7 mmHg | 0 in | - | 77 W/m² | - |
| 1788157932 | 70° F | 45% | 769 mmHg | 0 in | - | 107 W/m² | - |
| 1788157033 | 70° F | 45% | 769 mmHg | 0 in | - | 143 W/m² | - |
| 1788156133 | 69° F | 46% | 769 mmHg | 0 in | - | 179 W/m² | - |
| 1788155232 | 70° F | 47% | 769 mmHg | 0 in | - | 223 W/m² | - |
| 1788154333 | 71° F | 45% | 769.3 mmHg | 0 in | - | 265 W/m² | - |
| 1788153432 | 70° F | 47% | 769.3 mmHg | 0 in | - | 311 W/m² | - |
| 1788152533 | 68° F | 49% | 769.8 mmHg | 0 in | - | 342 W/m² | - |
| 1788151632 | 68° F | 48% | 769.8 mmHg | 0 in | - | 385 W/m² | - |
| 1788150733 | 68° F | 49% | 770 mmHg | 0 in | - | 422 W/m² | - |
| 1788149832 | 68° F | 49% | 770 mmHg | 0 in | - | 455 W/m² | - |
| 1788148933 | 66° F | 54% | 770.2 mmHg | 0 in | - | 387 W/m² | - |
| 1788148032 | 66° F | 54% | 770.2 mmHg | 0 in | - | 522 W/m² | - |
| 1788147133 | 66° F | 56% | 770.5 mmHg | 0 in | - | 561 W/m² | - |
| 1788146232 | 66° F | 55% | 770.8 mmHg | 0 in | - | 588 W/m² | - |
| 1788145333 | 64° F | 58% | 771.1 mmHg | 0 in | - | 601 W/m² | - |
| 1788144432 | 64° F | 60% | 771.1 mmHg | 0 in | - | 614 W/m² | - |
| 1788143533 | 62° F | 62% | 771.3 mmHg | 0 in | - | 624 W/m² | - |
| 1788142632 | 62° F | 62% | 771.5 mmHg | 0 in | - | 625 W/m² | - |
| 1788141733 | 61° F | 64% | 771.8 mmHg | 0 in | - | 628 W/m² | - |
| 1788140832 | 60° F | 65% | 772 mmHg | 0 in | - | 617 W/m² | - |
| 1788139933 | 59° F | 68% | 772 mmHg | 0 in | - | 606 W/m² | - |
| 1788139032 | 59° F | 68% | 772.3 mmHg | 0 in | - | 590 W/m² | - |
| 1788138133 | 58° F | 70% | 772 mmHg | 0 in | - | 573 W/m² | - |
* Rain latest hour (hover to see other rain measurements)
** Current wind speed in m/s (hover to see current wind gust speed)